Time;durP1;ratioP1;P1;durP2;ratioP2;P2;SDS_P1;SDS_P2;PMS_P1;PMS_P2;Temp;Humidity;BMP_temperature;BMP_pressure;BME280_temperature;BME280_humidity;BME280_pressure;Samples;Min_cycle;Max_cycle;Signal;HPM_P1;HPM_P2
2022/08/01 00:01:27;;;;;;;8.10;3.15;;;;;;;21.62;59.09;100328.83;1781005;79;20868;-85
2022/08/01 00:03:54;;;;;;;6.55;3.98;;;;;;;21.62;59.32;100338.17;1781209;80;20971;-84
2022/08/01 00:06:20;;;;;;;10.95;3.35;;;;;;;21.62;59.17;100329.66;1781156;80;21122;-86
2022/08/01 00:08:47;;;;;;;7.20;2.70;;;;;;;21.60;58.72;100324.98;1780778;79;21401;-86
2022/08/01 00:11:14;;;;;;;3.90;3.27;;;;;;;21.61;61.89;100325.81;1781045;80;20978;-85
2022/08/01 00:13:40;;;;;;;6.17;3.50;;;;;;;21.62;63.75;100330.17;1780731;80;20876;-85
2022/08/01 00:16:07;;;;;;;4.92;2.62;;;;;;;21.59;64.40;100331.34;1780864;80;20864;-86
2022/08/01 00:18:35;;;;;;;4.72;2.37;;;;;;;21.55;65.06;100339.36;1780702;79;21239;-86
2022/08/01 00:21:04;;;;;;;4.05;3.02;;;;;;;21.51;65.94;100344.19;1780769;80;21410;-85
2022/08/01 00:23:31;;;;;;;4.92;3.47;;;;;;;21.46;66.60;100355.05;1780917;80;20947;-86
2022/08/01 00:25:57;;;;;;;10.15;3.35;;;;;;;21.39;66.63;100356.68;1781470;80;20856;-86
2022/08/01 00:28:24;;;;;;;6.40;3.70;;;;;;;21.31;67.12;100362.87;1784417;80;20935;-85
2022/08/01 00:30:50;;;;;;;5.10;3.50;;;;;;;21.23;67.77;100359.72;1781444;80;21077;-85
2022/08/01 00:33:17;;;;;;;4.95;3.35;;;;;;;21.17;67.88;100359.56;1780920;80;20868;-86
2022/08/01 00:35:44;;;;;;;5.05;3.42;;;;;;;21.09;68.07;100367.88;1780770;80;20959;-85
2022/08/01 00:38:11;;;;;;;10.75;3.72;;;;;;;21.01;68.36;100363.03;1780970;80;20875;-87
2022/08/01 00:40:37;;;;;;;5.42;3.80;;;;;;;20.94;68.56;100358.87;1780792;79;20879;-84
2022/08/01 00:43:03;;;;;;;3.62;2.72;;;;;;;20.87;68.98;100364.03;1780762;80;21140;-86
2022/08/01 00:45:30;;;;;;;7.15;3.22;;;;;;;20.84;68.32;100356.88;1780788;79;20837;-85
2022/08/01 00:47:57;;;;;;;6.90;3.45;;;;;;;20.79;68.32;100348.05;1780873;80;20903;-86
2022/08/01 00:50:23;;;;;;;4.10;2.80;;;;;;;20.77;68.30;100340.72;1780683;79;21428;-86
2022/08/01 00:52:50;;;;;;;4.47;2.60;;;;;;;20.76;67.43;100335.03;1781002;80;20884;-86
2022/08/01 00:55:17;;;;;;;3.95;2.45;;;;;;;20.76;66.34;100328.87;1780776;80;21800;-86
2022/08/01 00:57:43;;;;;;;3.87;2.20;;;;;;;20.77;64.84;100320.73;1780582;80;20963;-84
2022/08/01 01:00:11;;;;;;;3.55;2.02;;;;;;;20.78;63.65;100319.72;1725902;80;20837;-86
2022/08/01 01:02:38;;;;;;;5.53;2.60;;;;;;;20.81;62.51;100332.73;1780677;80;21406;-85
2022/08/01 01:05:06;;;;;;;5.15;2.02;;;;;;;20.84;61.92;100327.56;1780825;80;20912;-85
2022/08/01 01:07:38;;;;;;;3.75;1.92;;;;;;;20.86;61.38;100321.06;1780938;80;21234;-86
2022/08/01 01:10:22;;;;;;;2.90;2.05;;;;;;;20.90;61.19;100322.91;1780610;80;20959;-85
2022/08/01 01:14:53;;;;;;;3.20;2.05;;;;;;;20.98;61.04;100318.05;1797837;79;23265;-85
2022/08/01 01:17:25;;;;;;;6.37;2.10;;;;;;;20.93;61.19;100308.41;1758464;80;21460;-85
2022/08/01 01:19:54;;;;;;;7.50;2.70;;;;;;;20.95;61.30;100314.41;1758421;81;21066;-86
2022/08/01 01:22:37;;;;;;;7.55;2.80;;;;;;;20.94;61.23;100316.22;1758670;80;20967;-84
2022/08/01 01:25:24;;;;;;;3.08;2.35;;;;;;;20.93;61.57;100318.56;1760374;80;20920;-85
2022/08/01 01:28:12;;;;;;;5.20;3.10;;;;;;;20.91;61.78;100315.23;1755918;80;21480;-85
2022/08/01 01:30:39;;;;;;;9.60;3.17;;;;;;;20.88;61.94;100316.91;1758459;80;20881;-86
2022/08/01 01:33:07;;;;;;;3.25;2.90;;;;;;;20.83;61.93;100315.22;1739445;81;21232;-86
2022/08/01 01:35:36;;;;;;;5.45;3.47;;;;;;;20.78;62.22;100319.72;1739272;80;20928;-86
2022/08/01 01:38:10;;;;;;;3.12;2.62;;;;;;;20.75;62.44;100325.89;1758365;80;20975;-85
2022/08/01 01:40:37;;;;;;;5.47;2.70;;;;;;;20.72;62.93;100330.20;1758301;81;20919;-86
2022/08/01 01:43:03;;;;;;;4.90;2.42;;;;;;;20.67;62.98;100339.52;1758488;80;20857;-86
2022/08/01 01:45:30;;;;;;;3.98;2.98;;;;;;;20.65;63.30;100343.35;1758345;80;21134;-85
2022/08/01 01:47:57;;;;;;;5.90;2.98;;;;;;;20.60;63.51;100335.02;1739224;80;20865;-86
2022/08/01 01:50:24;;;;;;;5.75;3.42;;;;;;;20.57;63.64;100336.20;1758382;80;20861;-86
2022/08/01 01:52:51;;;;;;;7.58;3.72;;;;;;;20.51;63.84;100335.48;1758260;81;20968;-85
2022/08/01 01:55:19;;;;;;;4.35;3.47;;;;;;;20.48;64.13;100335.31;1758424;80;21385;-85
2022/08/01 01:57:45;;;;;;;4.65;3.70;;;;;;;20.45;64.25;100338.31;1758424;80;21231;-86
2022/08/01 02:00:13;;;;;;;3.87;3.10;;;;;;;20.44;64.53;100337.13;1758380;81;20983;-85
2022/08/01 02:02:39;;;;;;;4.87;3.58;;;;;;;20.41;64.70;100338.30;1758407;80;20932;-86
2022/08/01 02:05:07;;;;;;;5.47;4.25;;;;;;;20.41;64.95;100343.62;1758386;81;20853;-86
2022/08/01 02:07:34;;;;;;;5.97;3.85;;;;;;;20.41;64.90;100342.30;1758375;80;20928;-85
2022/08/01 02:10:00;;;;;;;6.37;3.87;;;;;;;20.41;65.04;100339.63;1758384;80;21243;-85
2022/08/01 02:12:27;;;;;;;7.40;3.85;;;;;;;20.39;64.98;100337.62;1758166;80;20885;-85
2022/08/01 02:14:53;;;;;;;8.23;4.20;;;;;;;20.38;65.25;100343.11;1745644;80;20944;-85
2022/08/01 02:17:20;;;;;;;7.37;3.83;;;;;;;20.36;65.22;100338.44;1745201;81;21632;-85
2022/08/01 02:19:46;;;;;;;6.92;4.35;;;;;;;20.33;65.34;100334.27;1746175;82;20920;-83
2022/08/01 02:22:37;;;;;;;6.83;5.05;;;;;;;20.32;65.49;100333.95;1747245;80;21706;-85
2022/08/01 02:25:24;;;;;;;6.95;4.78;;;;;;;20.32;65.35;100347.27;1746042;81;20842;-85
2022/08/01 02:28:01;;;;;;;6.12;4.28;;;;;;;20.33;65.35;100358.24;1744749;81;20952;-86
2022/08/01 02:30:33;;;;;;;7.33;4.42;;;;;;;20.29;65.38;100358.23;1744803;81;20909;-84
2022/08/01 02:33:05;;;;;;;7.25;4.37;;;;;;;20.25;65.49;100349.74;1744690;80;20924;-86
2022/08/01 02:35:34;;;;;;;8.65;4.75;;;;;;;20.23;65.79;100353.54;1744043;81;21270;-85
2022/08/01 02:38:01;;;;;;;7.47;4.50;;;;;;;20.23;65.68;100350.41;1744850;82;20897;-84
2022/08/01 02:40:30;;;;;;;6.47;4.85;;;;;;;20.23;65.67;100350.41;1746891;79;21007;-84
2022/08/01 02:42:56;;;;;;;7.40;4.80;;;;;;;20.23;65.63;100351.73;1737626;82;20897;-83
2022/08/01 02:45:25;;;;;;;9.80;4.70;;;;;;;20.23;65.77;100359.72;1745838;81;21440;-84
2022/08/01 02:47:55;;;;;;;8.63;4.90;;;;;;;20.21;65.90;100357.72;1744951;81;21211;-86
2022/08/01 02:50:22;;;;;;;8.20;4.00;;;;;;;20.23;66.08;100361.53;1744794;81;20971;-85
2022/08/01 02:52:50;;;;;;;9.95;4.70;;;;;;;20.23;66.24;100363.72;1735385;82;20944;-84
2022/08/01 02:55:17;;;;;;;9.45;5.30;;;;;;;20.22;66.20;100364.69;1745826;81;20972;-85
2022/08/01 02:57:44;;;;;;;6.70;5.60;;;;;;;20.20;66.07;100368.02;1745333;81;21468;-85
2022/08/01 03:00:11;;;;;;;9.00;5.05;;;;;;;20.20;66.26;100376.00;1744766;81;21850;-85
2022/08/01 03:02:39;;;;;;;9.40;5.03;;;;;;;20.19;66.34;100375.68;1744555;81;20929;-84
2022/08/01 03:05:08;;;;;;;8.18;4.15;;;;;;;20.18;66.58;100366.00;1744731;81;20889;-85
2022/08/01 03:07:34;;;;;;;4.85;3.80;;;;;;;20.19;66.59;100377.01;1744672;81;20979;-86
2022/08/01 03:10:01;;;;;;;7.85;4.97;;;;;;;20.20;66.63;100372.52;1744704;82;20850;-85
2022/08/01 03:12:28;;;;;;;8.60;5.15;;;;;;;20.19;66.96;100375.68;1744716;81;21141;-85
2022/08/01 03:14:56;;;;;;;7.30;4.28;;;;;;;20.17;67.27;100367.52;1755821;80;20919;-85
2022/08/01 03:17:24;;;;;;;9.63;4.67;;;;;;;20.14;67.50;100369.98;1758247;81;20900;-85
2022/08/01 03:19:51;;;;;;;8.20;4.60;;;;;;;20.13;67.83;100373.66;1759292;81;20967;-85
2022/08/01 03:22:18;;;;;;;7.30;3.98;;;;;;;20.12;68.01;100361.34;1742755;81;20916;-86
2022/08/01 03:24:46;;;;;;;9.23;4.83;;;;;;;20.12;68.37;100367.14;1758212;80;21129;-87
2022/08/01 03:27:13;;;;;;;14.90;5.60;;;;;;;20.09;68.44;100381.61;1741299;81;20936;-85
2022/08/01 03:29:40;;;;;;;11.43;5.78;;;;;;;20.07;68.66;100382.27;1693178;81;20972;-82
2022/08/01 03:32:07;;;;;;;15.30;5.85;;;;;;;20.05;69.13;100378.45;1742686;81;20889;-83
2022/08/01 03:34:34;;;;;;;9.80;4.75;;;;;;;20.05;69.92;100381.12;1741034;81;20935;-84
2022/08/01 03:37:16;;;;;;;9.05;6.05;;;;;;;20.04;70.66;100384.76;1757904;81;21146;-84
2022/08/01 03:39:54;;;;;;;10.78;5.33;;;;;;;20.03;71.62;100383.58;1758025;81;21363;-85
2022/08/01 03:42:24;;;;;;;7.97;5.00;;;;;;;20.02;72.56;100388.07;1757902;80;21524;-85
2022/08/01 03:44:57;;;;;;;7.22;5.35;;;;;;;20.01;73.29;100396.20;1757911;81;20944;-84
2022/08/01 03:47:28;;;;;;;6.28;4.85;;;;;;;19.98;73.89;100403.20;1757996;80;20936;-85
2022/08/01 03:49:54;;;;;;;7.55;5.30;;;;;;;19.93;74.42;100399.68;1758103;80;21172;-85
2022/08/01 03:52:21;;;;;;;11.25;5.95;;;;;;;19.88;74.91;100400.16;1757988;81;20915;-86
2022/08/01 03:54:50;;;;;;;6.45;5.30;;;;;;;19.83;75.34;100393.63;1758105;80;20896;-86
2022/08/01 03:57:16;;;;;;;7.22;5.03;;;;;;;19.77;75.73;100387.13;1758092;81;20889;-86
2022/08/01 03:59:43;;;;;;;9.50;4.87;;;;;;;19.74;75.85;100380.77;1758131;81;20970;-83
2022/08/01 04:02:10;;;;;;;9.73;5.60;;;;;;;19.72;75.63;100376.13;1758160;81;21236;-85
2022/08/01 04:04:36;;;;;;;9.55;7.05;;;;;;;19.70;75.02;100387.42;1758259;81;20927;-85
2022/08/01 04:07:08;;;;;;;7.65;5.37;;;;;;;19.66;74.73;100387.36;1758279;81;20975;-85
2022/08/01 04:09:34;;;;;;;11.03;5.25;;;;;;;19.65;74.98;100381.68;1758608;80;20948;-85
2022/08/01 04:12:02;;;;;;;7.95;5.22;;;;;;;19.65;75.10;100380.34;1758172;80;21377;-85
2022/08/01 04:14:28;;;;;;;8.08;5.70;;;;;;;19.66;75.13;100384.19;1758563;81;21753;-85
2022/08/01 04:16:55;;;;;;;9.45;4.75;;;;;;;19.68;75.38;100380.05;1760302;81;20849;-83
2022/08/01 04:19:21;;;;;;;6.35;4.75;;;;;;;19.68;75.34;100377.39;1759764;81;21429;-86
2022/08/01 04:21:48;;;;;;;6.47;4.65;;;;;;;19.67;75.29;100372.58;1757975;81;20931;-85
2022/08/01 04:24:17;;;;;;;6.92;5.30;;;;;;;19.66;75.14;100375.38;1757891;81;20873;-85
2022/08/01 04:26:45;;;;;;;6.72;4.60;;;;;;;19.68;75.33;100386.70;1757987;81;21128;-85
2022/08/01 04:29:12;;;;;;;5.70;4.12;;;;;;;19.68;75.39;100386.20;1757809;81;21452;-85
2022/08/01 04:31:39;;;;;;;6.05;4.05;;;;;;;19.69;75.47;100383.07;1758046;80;21501;-86
2022/08/01 04:34:06;;;;;;;7.00;4.42;;;;;;;19.69;74.81;100379.08;1757788;81;20873;-86
2022/08/01 04:36:36;;;;;;;9.10;4.53;;;;;;;19.67;74.55;100373.91;1757989;80;20948;-86
2022/08/01 04:39:03;;;;;;;8.68;4.75;;;;;;;19.68;74.69;100379.55;1758060;81;22189;-86
2022/08/01 04:41:30;;;;;;;7.40;4.55;;;;;;;19.72;74.86;100381.91;1757834;81;21011;-86
2022/08/01 04:43:59;;;;;;;6.80;4.17;;;;;;;19.75;74.25;100386.44;1757774;80;20912;-86
2022/08/01 04:46:26;;;;;;;8.45;4.30;;;;;;;19.75;74.42;100378.45;1758013;81;20916;-85
2022/08/01 04:48:52;;;;;;;8.75;4.00;;;;;;;19.77;74.01;100372.98;1758307;80;20979;-85
2022/08/01 04:51:21;;;;;;;6.70;4.87;;;;;;;19.77;74.02;100370.33;1741073;80;21211;-86
2022/08/01 04:53:48;;;;;;;6.95;4.40;;;;;;;19.74;74.00;100375.44;1757966;80;20877;-86
2022/08/01 04:56:14;;;;;;;7.03;5.22;;;;;;;19.73;74.04;100381.77;1757879;81;20912;-87
2022/08/01 04:58:41;;;;;;;9.10;5.97;;;;;;;19.74;73.54;100383.92;1757938;81;21011;-85
2022/08/01 05:01:09;;;;;;;8.00;5.22;;;;;;;19.76;72.93;100393.42;1758011;81;20861;-86
2022/08/01 05:03:36;;;;;;;7.20;4.85;;;;;;;19.80;72.73;100404.59;1758199;81;21951;-86
2022/08/01 05:06:03;;;;;;;10.05;5.25;;;;;;;19.81;72.35;100398.27;1758229;81;20928;-87
2022/08/01 05:08:30;;;;;;;8.20;4.95;;;;;;;19.83;72.61;100402.47;1758440;81;20971;-86
2022/08/01 05:10:57;;;;;;;6.75;5.22;;;;;;;19.85;72.71;100408.47;1758712;80;21358;-85
2022/08/01 05:13:23;;;;;;;6.60;5.33;;;;;;;19.88;72.63;100414.80;1758517;80;20924;-85
2022/08/01 05:15:50;;;;;;;5.58;4.45;;;;;;;19.91;72.61;100412.81;1759504;80;21159;-86
2022/08/01 05:18:16;;;;;;;5.60;4.53;;;;;;;19.93;72.57;100412.98;1758163;81;20829;-86
2022/08/01 05:20:43;;;;;;;8.25;4.53;;;;;;;19.94;72.63;100417.30;1758003;81;20917;-87
2022/08/01 05:23:09;;;;;;;9.68;4.47;;;;;;;19.95;72.84;100412.84;1757898;81;20892;-86
2022/08/01 05:25:38;;;;;;;7.55;4.40;;;;;;;19.96;73.43;100419.31;1757967;81;20888;-86
2022/08/01 05:28:05;;;;;;;10.23;4.45;;;;;;;19.96;73.79;100418.48;1757893;81;21294;-86
2022/08/01 05:30:31;;;;;;;6.37;4.70;;;;;;;19.94;73.61;100425.79;1757868;81;20955;-85
2022/08/01 05:32:58;;;;;;;8.80;4.70;;;;;;;19.95;73.92;100434.13;1757961;81;20880;-86
2022/08/01 05:35:25;;;;;;;7.00;4.47;;;;;;;19.95;73.65;100448.77;1757989;81;20865;-86
2022/08/01 05:37:52;;;;;;;8.65;4.10;;;;;;;19.96;74.37;100443.77;1758069;81;20947;-86
2022/08/01 05:40:18;;;;;;;8.10;4.53;;;;;;;19.98;74.74;100455.92;1757923;80;21130;-86
2022/08/01 05:42:45;;;;;;;11.73;4.20;;;;;;;19.97;74.35;100454.27;1757876;81;21387;-86
2022/08/01 05:45:11;;;;;;;12.18;4.92;;;;;;;19.97;74.11;100451.61;1757950;80;20920;-86
2022/08/01 05:47:38;;;;;;;7.33;3.65;;;;;;;19.98;74.36;100431.14;1757817;80;20940;-87
2022/08/01 05:50:05;;;;;;;7.80;4.62;;;;;;;19.98;74.56;100434.63;1757877;80;20918;-86
2022/08/01 05:52:32;;;;;;;8.00;4.78;;;;;;;19.97;74.39;100428.98;1757917;81;21259;-86
2022/08/01 05:54:59;;;;;;;7.60;5.08;;;;;;;19.98;74.56;100424.48;1757922;81;20927;-85
2022/08/01 05:57:25;;;;;;;7.00;4.20;;;;;;;20.00;75.05;100415.84;1757894;80;20924;-86
2022/08/01 05:59:52;;;;;;;7.62;4.12;;;;;;;20.06;75.33;100424.55;1757820;81;20932;-85
2022/08/01 06:02:18;;;;;;;6.58;4.50;;;;;;;20.09;75.03;100436.19;1758091;81;20829;-87
2022/08/01 06:04:45;;;;;;;7.55;4.70;;;;;;;20.10;74.60;100435.22;1758072;80;21382;-87
2022/08/01 06:07:12;;;;;;;8.48;4.45;;;;;;;20.14;74.65;100435.72;1758175;81;20897;-85
2022/08/01 06:09:39;;;;;;;9.68;5.05;;;;;;;20.15;74.83;100424.09;1758469;80;21339;-86
2022/08/01 06:12:06;;;;;;;7.95;4.85;;;;;;;20.17;74.38;100424.27;1759245;81;20892;-86
2022/08/01 06:14:33;;;;;;;7.67;4.78;;;;;;;20.19;74.07;100420.12;1756889;81;21389;-86
2022/08/01 06:16:59;;;;;;;6.90;4.05;;;;;;;20.21;73.96;100422.09;1744991;80;21133;-85
2022/08/01 06:19:26;;;;;;;6.70;4.30;;;;;;;20.23;73.72;100416.97;1745351;81;20905;-86
2022/08/01 06:21:52;;;;;;;6.30;4.25;;;;;;;20.27;73.51;100419.63;1745415;81;20988;-86
2022/08/01 06:24:19;;;;;;;7.28;4.72;;;;;;;20.33;73.55;100418.67;1746773;81;20889;-85
2022/08/01 06:26:45;;;;;;;4.92;3.70;;;;;;;20.41;73.46;100424.01;1748276;81;20874;-86
2022/08/01 06:29:12;;;;;;;5.53;4.30;;;;;;;20.48;73.52;100417.89;1746081;81;21196;-86
2022/08/01 06:31:39;;;;;;;4.60;3.98;;;;;;;20.59;73.42;100418.64;1744868;81;20928;-87
2022/08/01 06:34:06;;;;;;;5.55;4.83;;;;;;;20.68;73.23;100426.98;1744827;81;20967;-86
2022/08/01 06:36:33;;;;;;;7.80;4.72;;;;;;;20.78;72.70;100432.98;1744753;82;20905;-88
2022/08/01 06:39:00;;;;;;;8.48;4.30;;;;;;;20.83;72.50;100432.02;1744849;81;20916;-87
2022/08/01 06:41:26;;;;;;;5.67;4.35;;;;;;;20.91;72.50;100436.02;1744994;80;21088;-87
2022/08/01 06:43:53;;;;;;;9.30;4.92;;;;;;;20.97;72.05;100432.38;1744653;80;21414;-89
2022/08/01 06:46:19;;;;;;;8.25;4.72;;;;;;;20.99;71.71;100421.05;1744730;82;21363;-87
2022/08/01 06:48:46;;;;;;;11.55;4.53;;;;;;;21.01;71.91;100421.22;1744802;81;20932;-88
2022/08/01 06:51:13;;;;;;;8.30;4.12;;;;;;;21.06;71.88;100420.72;1744798;81;21410;-87
2022/08/01 06:53:40;;;;;;;4.95;4.42;;;;;;;21.13;71.43;100415.56;1744836;81;21136;-87
2022/08/01 06:56:08;;;;;;;8.35;5.25;;;;;;;21.18;71.27;100410.55;1744597;80;20870;-85
2022/08/01 06:58:35;;;;;;;5.53;4.50;;;;;;;21.28;71.16;100404.05;1744888;81;20924;-85
2022/08/01 07:01:05;;;;;;;6.22;4.55;;;;;;;21.41;70.96;100394.73;1744994;82;20980;-84
2022/08/01 07:03:33;;;;;;;6.30;5.55;;;;;;;21.55;70.78;100393.23;1745636;81;20945;-84
2022/08/01 07:05:59;;;;;;;8.58;5.53;;;;;;;21.69;70.60;100375.18;1745401;81;21228;-87
2022/08/01 07:08:26;;;;;;;7.90;6.20;;;;;;;21.83;70.12;100393.17;1745730;81;20929;-87
2022/08/01 07:10:53;;;;;;;6.95;5.12;;;;;;;21.97;70.04;100388.95;1746608;81;20980;-87
2022/08/01 07:13:22;;;;;;;7.55;5.42;;;;;;;22.10;69.33;100380.41;1745344;81;21738;-88
2022/08/01 07:15:49;;;;;;;4.78;4.28;;;;;;;22.20;68.95;100371.66;1745022;81;21381;-87
2022/08/01 07:18:15;;;;;;;6.20;4.70;;;;;;;22.27;68.76;100361.14;1746031;82;21157;-85
2022/08/01 07:20:41;;;;;;;6.35;4.58;;;;;;;22.31;68.55;100353.94;1747862;82;21000;-85
2022/08/01 07:23:08;;;;;;;7.80;4.58;;;;;;;22.38;68.55;100358.08;1745509;80;20885;-88
2022/08/01 07:25:35;;;;;;;8.08;5.08;;;;;;;22.44;68.13;100353.88;1744993;81;20999;-86
2022/08/01 07:28:01;;;;;;;6.12;4.95;;;;;;;22.49;67.87;100356.34;1744957;81;20933;-86
2022/08/01 07:30:28;;;;;;;5.97;4.33;;;;;;;22.54;67.73;100366.02;1744917;80;21161;-85
2022/08/01 07:32:54;;;;;;;5.70;4.58;;;;;;;22.58;67.65;100365.14;1744755;81;20945;-86
2022/08/01 07:35:21;;;;;;;5.55;4.53;;;;;;;22.61;67.46;100362.62;1744935;80;21023;-86
2022/08/01 07:37:48;;;;;;;7.05;5.10;;;;;;;22.64;67.28;100357.76;1744718;81;20944;-85
2022/08/01 07:40:14;;;;;;;5.85;4.28;;;;;;;22.69;66.80;100356.72;1745077;81;21509;-88
2022/08/01 07:42:44;;;;;;;4.92;4.40;;;;;;;22.74;66.97;100340.99;1745047;81;21092;-85
2022/08/01 07:45:11;;;;;;;10.50;6.83;;;;;;;22.81;66.46;100331.75;1744690;81;20972;-85
2022/08/01 07:47:38;;;;;;;7.05;5.67;;;;;;;22.86;66.27;100332.55;1744809;81;20948;-86
2022/08/01 07:50:06;;;;;;;7.30;4.92;;;;;;;22.92;66.49;100329.13;1744696;81;21452;-86
2022/08/01 07:52:32;;;;;;;5.15;4.67;;;;;;;23.03;66.42;100318.03;1745125;81;20936;-87
2022/08/01 07:54:59;;;;;;;7.55;5.20;;;;;;;23.15;66.50;100307.23;1745218;80;21125;-87
2022/08/01 07:57:26;;;;;;;6.60;4.97;;;;;;;23.32;66.20;100315.95;1744868;81;21391;-86
2022/08/01 07:59:52;;;;;;;9.25;4.67;;;;;;;23.62;65.67;100325.32;1745292;81;21496;-88
2022/08/01 08:02:19;;;;;;;6.30;4.60;;;;;;;23.95;65.18;100337.03;1745169;82;20921;-87
2022/08/01 08:04:45;;;;;;;10.38;4.80;;;;;;;24.27;63.95;100338.43;1745021;81;21374;-89
2022/08/01 08:07:12;;;;;;;6.53;4.17;;;;;;;24.57;62.58;100331.17;1745198;81;21807;-87
2022/08/01 08:09:39;;;;;;;6.37;5.67;;;;;;;24.77;60.73;100334.05;1745656;81;20908;-86
2022/08/01 08:12:06;;;;;;;7.33;4.72;;;;;;;24.90;60.29;100316.40;1745676;81;20921;-89
2022/08/01 08:14:34;;;;;;;7.55;5.55;;;;;;;25.05;59.41;100319.83;1744922;80;21449;-87
2022/08/01 08:17:00;;;;;;;8.00;4.33;;;;;;;25.22;59.41;100333.31;1745557;81;21401;-87
2022/08/01 08:19:27;;;;;;;7.28;4.62;;;;;;;25.39;58.58;100333.01;1745228;81;21198;-87
2022/08/01 08:21:53;;;;;;;5.87;4.40;;;;;;;25.57;58.18;100327.98;1744868;81;20897;-86
2022/08/01 08:24:20;;;;;;;5.55;4.42;;;;;;;25.67;57.54;100331.64;1745086;82;20862;-85
2022/08/01 08:26:47;;;;;;;4.45;4.05;;;;;;;25.86;57.43;100330.10;1745209;81;20999;-87
2022/08/01 08:29:14;;;;;;;6.78;5.70;;;;;;;26.20;57.54;100311.75;1744895;81;21000;-87
2022/08/01 08:31:41;;;;;;;5.78;4.95;;;;;;;26.59;55.34;100302.16;1744890;81;21826;-87
2022/08/01 08:34:07;;;;;;;6.97;5.97;;;;;;;27.06;54.51;100292.75;1745058;81;20889;-88
2022/08/01 08:36:34;;;;;;;8.73;5.45;;;;;;;27.62;53.77;100290.08;1744750;81;20925;-88
2022/08/01 08:39:01;;;;;;;9.30;7.25;;;;;;;28.16;52.29;100286.12;1744666;81;20983;-86
2022/08/01 08:41:35;;;;;;;7.58;5.78;;;;;;;28.73;48.80;100287.56;1745001;81;20885;-87
2022/08/01 08:44:05;;;;;;;18.85;13.60;;;;;;;29.14;49.09;100271.33;1744632;81;21021;-87
2022/08/01 08:46:32;;;;;;;15.70;9.93;;;;;;;29.44;48.36;100276.84;1744102;81;20996;-86
2022/08/01 08:49:00;;;;;;;10.05;7.60;;;;;;;29.52;47.48;100286.51;1744578;82;20921;-86
2022/08/01 08:51:27;;;;;;;11.08;9.35;;;;;;;29.41;47.38;100270.52;1744627;81;20965;-88
2022/08/01 08:53:55;;;;;;;10.82;9.73;;;;;;;29.28;47.75;100264.75;1744737;81;20979;-88
2022/08/01 08:56:21;;;;;;;10.53;9.53;;;;;;;29.10;47.66;100266.91;1744760;81;21130;-88
2022/08/01 08:58:48;;;;;;;11.43;9.08;;;;;;;28.96;48.12;100272.62;1744583;81;20885;-85
2022/08/01 09:01:16;;;;;;;18.27;16.52;;;;;;;28.83;47.87;100265.45;1744795;81;20882;-87
2022/08/01 09:03:43;;;;;;;13.20;10.03;;;;;;;28.73;48.10;100251.94;1744672;81;20948;-86
2022/08/01 09:06:09;;;;;;;11.08;9.70;;;;;;;28.65;47.73;100247.34;1745459;81;20904;-86
2022/08/01 09:08:36;;;;;;;11.22;9.83;;;;;;;28.56;48.21;100243.27;1747594;81;21139;-86
2022/08/01 09:11:03;;;;;;;10.55;8.15;;;;;;;28.44;48.37;100235.85;1745699;81;20940;-88
2022/08/01 09:13:29;;;;;;;11.68;9.78;;;;;;;28.30;48.76;100236.98;1744938;80;20944;-89
2022/08/01 09:15:59;;;;;;;14.58;12.18;;;;;;;28.14;48.71;100227.55;1744733;81;20893;-88
2022/08/01 09:18:33;;;;;;;13.13;9.68;;;;;;;27.94;48.99;100240.32;1744585;81;20959;-89
2022/08/01 09:21:22;;;;;;;10.78;9.00;;;;;;;27.70;49.28;100248.06;1744724;80;21780;-89
2022/08/01 09:23:53;;;;;;;11.05;8.63;;;;;;;27.46;49.28;100240.20;1744709;81;21015;-84
2022/08/01 09:26:35;;;;;;;12.25;8.83;;;;;;;27.17;49.18;100265.69;1744690;81;21355;-84
2022/08/01 09:29:05;;;;;;;13.18;8.08;;;;;;;26.89;49.93;100265.42;1744410;81;20932;-84
2022/08/01 09:31:41;;;;;;;8.43;7.60;;;;;;;26.69;50.50;100253.32;1744821;81;20983;-85
2022/08/01 09:34:09;;;;;;;10.03;7.87;;;;;;;26.58;51.07;100235.11;1744575;82;21141;-85
2022/08/01 09:36:52;;;;;;;10.70;7.75;;;;;;;26.55;51.77;100231.47;1744754;81;20897;-86
2022/08/01 09:39:19;;;;;;;9.63;8.38;;;;;;;26.58;52.16;100231.08;1744659;81;20873;-87
2022/08/01 09:41:47;;;;;;;11.50;8.05;;;;;;;26.71;51.97;100241.02;1744829;82;20917;-85
2022/08/01 09:44:17;;;;;;;8.58;6.65;;;;;;;26.95;52.41;100247.63;1744719;80;21545;-85
2022/08/01 09:46:52;;;;;;;6.75;5.65;;;;;;;27.28;51.22;100265.11;1734441;81;21778;-85
2022/08/01 09:49:34;;;;;;;8.85;5.58;;;;;;;27.66;50.30;100267.89;1744774;81;20881;-85
2022/08/01 09:52:19;;;;;;;7.47;5.22;;;;;;;28.00;50.16;100258.34;1744460;81;20965;-84
2022/08/01 09:55:01;;;;;;;6.42;5.67;;;;;;;28.30;49.17;100263.45;1743849;81;21422;-87
2022/08/01 09:57:28;;;;;;;9.55;5.80;;;;;;;28.40;48.57;100281.84;1744886;81;20934;-84
2022/08/01 09:59:57;;;;;;;9.80;6.90;;;;;;;28.44;48.05;100280.89;1745066;81;21282;-84
2022/08/01 10:02:37;;;;;;;9.38;6.55;;;;;;;28.47;47.92;100284.49;1745019;80;20976;-86
2022/08/01 10:05:06;;;;;;;6.62;5.95;;;;;;;28.53;47.81;100289.59;1746703;80;20896;-83
2022/08/01 10:07:33;;;;;;;8.00;7.08;;;;;;;28.67;47.46;100290.59;1747380;81;20933;-85
2022/08/01 10:10:14;;;;;;;16.87;15.23;;;;;;;28.88;46.01;100309.66;1747617;78;20877;-86
2022/08/01 10:12:42;;;;;;;11.57;7.72;;;;;;;29.02;46.62;100321.16;1747657;82;21053;-85
2022/08/01 10:15:09;;;;;;;6.47;5.95;;;;;;;29.05;45.39;100319.89;1745396;81;21366;-86
2022/08/01 10:17:38;;;;;;;10.63;7.35;;;;;;;28.90;46.05;100328.31;1745093;81;20885;-85
2022/08/01 10:20:06;;;;;;;11.83;8.05;;;;;;;28.73;46.50;100344.23;1744745;81;20984;-87
2022/08/01 10:22:34;;;;;;;11.12;7.40;;;;;;;28.53;46.84;100343.55;1744699;82;21592;-85
2022/08/01 10:25:03;;;;;;;11.35;8.10;;;;;;;28.28;47.29;100363.13;1744852;81;21137;-85
2022/08/01 10:27:33;;;;;;;9.23;6.85;;;;;;;28.03;47.74;100361.69;1744544;82;20972;-86
2022/08/01 10:30:03;;;;;;;10.75;7.35;;;;;;;27.75;48.14;100362.80;1744720;81;21386;-86
2022/08/01 10:32:31;;;;;;;9.15;6.87;;;;;;;27.41;48.76;100348.56;1744869;81;21415;-85
2022/08/01 10:34:59;;;;;;;9.85;8.08;;;;;;;27.08;49.47;100353.42;1745581;80;20936;-85
2022/08/01 10:37:26;;;;;;;10.15;7.15;;;;;;;26.83;50.45;100367.97;1745553;81;21287;-87
2022/08/01 10:39:53;;;;;;;11.63;8.28;;;;;;;26.64;51.21;100357.51;1745106;81;20972;-86
2022/08/01 10:42:20;;;;;;;10.28;7.60;;;;;;;26.49;51.72;100368.10;1744819;81;20928;-87
2022/08/01 10:44:47;;;;;;;8.93;7.70;;;;;;;26.31;52.17;100370.83;1745004;81;20905;-86
2022/08/01 10:47:18;;;;;;;9.73;7.97;;;;;;;26.13;52.43;100378.63;1744954;81;21461;-86
2022/08/01 10:50:01;;;;;;;9.00;7.58;;;;;;;25.94;52.88;100380.17;1745469;82;21161;-85
2022/08/01 10:52:27;;;;;;;9.70;7.80;;;;;;;25.80;53.79;100384.62;1745190;81;20877;-86
2022/08/01 10:55:09;;;;;;;8.53;7.62;;;;;;;25.67;54.00;100381.33;1744988;81;20964;-86
2022/08/01 10:57:44;;;;;;;8.85;7.05;;;;;;;25.56;54.41;100378.67;1745225;82;21449;-85
2022/08/01 11:00:22;;;;;;;11.05;8.50;;;;;;;25.48;55.13;100378.84;1745165;81;21094;-86
2022/08/01 11:03:03;;;;;;;10.45;8.28;;;;;;;25.38;55.93;100383.72;1746623;81;21185;-85
2022/08/01 11:05:34;;;;;;;10.48;8.00;;;;;;;25.28;56.47;100374.67;1747393;81;20953;-85
2022/08/01 11:08:05;;;;;;;14.70;8.93;;;;;;;25.18;57.06;100376.81;1745318;80;21500;-85
2022/08/01 11:10:39;;;;;;;11.15;9.38;;;;;;;25.10;57.89;100372.91;1744985;81;20948;-87
2022/08/01 11:13:11;;;;;;;9.98;8.98;;;;;;;24.96;57.83;100367.43;1744948;82;21447;-86
2022/08/01 11:15:38;;;;;;;11.08;9.80;;;;;;;24.86;58.25;100365.60;1745638;80;21991;-88
2022/08/01 11:18:30;;;;;;;12.88;9.00;;;;;;;24.75;58.88;100367.45;1758276;81;20892;-88
2022/08/01 11:21:00;;;;;;;10.60;8.70;;;;;;;24.64;58.25;100374.66;1753928;81;20932;-85
2022/08/01 11:23:28;;;;;;;8.93;7.90;;;;;;;24.49;59.46;100364.80;1758159;81;20939;-87
2022/08/01 11:26:06;;;;;;;13.40;8.85;;;;;;;24.38;59.95;100366.60;1758341;81;20884;-86
2022/08/01 11:28:34;;;;;;;13.53;8.45;;;;;;;24.28;60.90;100380.80;1758295;81;21264;-85
2022/08/01 11:31:08;;;;;;;13.50;9.73;;;;;;;24.20;61.66;100377.21;1758037;80;20896;-86
2022/08/01 11:33:48;;;;;;;13.43;11.83;;;;;;;24.14;62.64;100380.63;1758240;80;20960;-86